createdAt,value
2019-05-16T00:02:09.630Z,100972.44
2019-05-16T00:04:41.227Z,100973.55
2019-05-16T00:07:12.162Z,100967.68
2019-05-16T00:09:43.137Z,100976.96
2019-05-16T00:12:14.889Z,100973.91
2019-05-16T00:14:48.810Z,100970.56
2019-05-16T00:17:19.658Z,100969.03
2019-05-16T00:19:50.266Z,100972.22
2019-05-16T00:22:21.413Z,100963.76
2019-05-16T00:24:53.171Z,100969.09
2019-05-16T00:27:24.724Z,100969.17
2019-05-16T00:29:58.139Z,100974.38
2019-05-16T00:32:29.778Z,100967.94
2019-05-16T00:35:01.220Z,100971.28
2019-05-16T00:37:32.976Z,100967.11
2019-05-16T00:40:04.279Z,100965.44
2019-05-16T00:42:35.470Z,100958.20
2019-05-16T00:45:09.230Z,100958.77
2019-05-16T00:47:40.830Z,100956.78
2019-05-16T00:50:12.684Z,100957.34
2019-05-16T00:52:44.541Z,100960.80
2019-05-16T00:55:17.789Z,100950.45
2019-05-16T00:57:50.087Z,100947.45
2019-05-16T01:00:42.755Z,100949.44
2019-05-16T01:03:15.084Z,100942.17
2019-05-16T01:05:48.076Z,100943.43
2019-05-16T01:08:20.689Z,100947.93
2019-05-16T01:10:52.038Z,100949.20
2019-05-16T01:13:23.897Z,100949.72
2019-05-16T01:15:54.559Z,100960.34
2019-05-16T01:18:25.673Z,100950.83
2019-05-16T01:20:58.547Z,100961.95
2019-05-16T01:23:30.205Z,100961.82
2019-05-16T01:26:01.758Z,100967.11
2019-05-16T01:28:33.418Z,100962.76
2019-05-16T01:31:05.183Z,100959.77
2019-05-16T01:33:38.703Z,100964.95
2019-05-16T01:36:10.436Z,100970.75
2019-05-16T01:38:41.877Z,100960.21
2019-05-16T01:41:13.530Z,100953.03
2019-05-16T01:43:45.501Z,100957.50
2019-05-16T01:46:18.100Z,100961.50
2019-05-16T01:48:49.825Z,100958.10
2019-05-16T01:51:21.276Z,100960.94
2019-05-16T01:53:53.590Z,100959.53
2019-05-16T01:56:24.999Z,100961.14
2019-05-16T01:58:58.117Z,100957.05
2019-05-16T02:01:28.970Z,100954.12
2019-05-16T02:04:00.374Z,100946.09
2019-05-16T02:06:32.339Z,100951.52
2019-05-16T02:09:05.015Z,100954.80
2019-05-16T02:11:38.713Z,100952.61
2019-05-16T02:14:09.670Z,100959.55
2019-05-16T02:16:41.136Z,100956.64
2019-05-16T02:19:11.741Z,100960.94
2019-05-16T02:21:42.927Z,100967.39
2019-05-16T02:24:13.533Z,100969.28
2019-05-16T02:26:44.712Z,100959.19
2019-05-16T02:29:15.393Z,100961.37
2019-05-16T02:31:46.426Z,100967.34
2019-05-16T02:34:17.034Z,100961.06
2019-05-16T02:37:08.311Z,100964.91
2019-05-16T02:39:21.330Z,100959.01
2019-05-16T02:41:52.133Z,100967.13
2019-05-16T02:44:24.782Z,100968.80
2019-05-16T02:46:56.461Z,100971.91
2019-05-16T02:49:30.688Z,100969.59
2019-05-16T02:52:02.027Z,100970.19
2019-05-16T02:54:33.580Z,100966.47
2019-05-16T02:57:05.126Z,100956.68
2019-05-16T02:59:37.820Z,100959.78
2019-05-16T03:02:11.390Z,100963.55
2019-05-16T03:04:44.444Z,100959.25
2019-05-16T03:07:32.835Z,100958.02
2019-05-16T03:09:51.603Z,100961.95
2019-05-16T03:12:25.521Z,100957.66
2019-05-16T03:15:01.877Z,100965.20
2019-05-16T03:17:35.133Z,100960.07
2019-05-16T03:20:10.719Z,100964.50
2019-05-16T03:22:41.756Z,100969.72
2019-05-16T03:25:13.243Z,100971.36
2019-05-16T03:27:44.630Z,100973.26
2019-05-16T03:30:17.017Z,100970.35
2019-05-16T03:32:54.176Z,100967.27
2019-05-16T03:35:24.833Z,100975.35
2019-05-16T03:37:59.638Z,100979.04
2019-05-16T03:40:31.394Z,100982.36
2019-05-16T03:43:03.187Z,100978.63
2019-05-16T03:45:35.035Z,100969.54
2019-05-16T03:48:06.826Z,100966.13
2019-05-16T03:50:41.261Z,100976.65
2019-05-16T03:53:11.903Z,100983.23
2019-05-16T03:55:43.576Z,100977.53
2019-05-16T03:58:14.678Z,100975.17
2019-05-16T04:00:55.007Z,100975.05
2019-05-16T04:03:28.814Z,100972.69
2019-05-16T04:06:02.205Z,100976.77
2019-05-16T04:08:33.662Z,100978.21
2019-05-16T04:11:05.168Z,100985.44
2019-05-16T04:13:36.743Z,100977.66
2019-05-16T04:16:07.376Z,100974.23
2019-05-16T04:18:41.657Z,100982.27
2019-05-16T04:21:12.185Z,100981.77
2019-05-16T04:23:43.675Z,100975.19
2019-05-16T04:26:15.192Z,100980.99
2019-05-16T04:28:46.589Z,100985.63
2019-05-16T04:31:17.211Z,100983.69
2019-05-16T04:33:51.413Z,100984.56
2019-05-16T04:36:21.616Z,100983.27
2019-05-16T04:38:53.048Z,100982.56
2019-05-16T04:41:24.584Z,100975.87
2019-05-16T04:44:00.406Z,100975.48
2019-05-16T04:46:31.402Z,100967.30
2019-05-16T04:49:03.111Z,100964.42
2019-05-16T04:51:34.654Z,100967.12
2019-05-16T04:54:08.227Z,100962.25
2019-05-16T04:56:41.391Z,100964.23
2019-05-16T04:59:16.557Z,100959.09
2019-05-16T05:01:46.523Z,100962.03
2019-05-16T05:04:20.933Z,100952.65
2019-05-16T05:06:53.714Z,100948.60
2019-05-16T05:09:24.844Z,100949.59
2019-05-16T05:11:56.452Z,100951.48
2019-05-16T05:14:30.573Z,100947.81
2019-05-16T05:17:04.871Z,100955.20
2019-05-16T05:19:34.265Z,100957.24
2019-05-16T05:22:06.085Z,100942.78
2019-05-16T05:24:37.533Z,100951.16
2019-05-16T05:27:10.455Z,100947.06
2019-05-16T05:29:42.016Z,100949.77
2019-05-16T05:32:14.455Z,100948.92
2019-05-16T05:34:45.352Z,100953.77
2019-05-16T05:37:15.975Z,100954.78
2019-05-16T05:39:47.056Z,100953.13
2019-05-16T05:42:19.898Z,100958.69
2019-05-16T05:44:52.309Z,100959.45
2019-05-16T05:47:23.728Z,100961.12
2019-05-16T05:49:55.062Z,100958.60
2019-05-16T05:52:26.819Z,100959.98
2019-05-16T05:55:00.704Z,100962.69
2019-05-16T05:57:31.665Z,100956.14
2019-05-16T06:00:03.238Z,100962.80
2019-05-16T06:02:34.832Z,100956.73
2019-05-16T06:05:10.356Z,100958.52
2019-05-16T06:07:41.025Z,100956.52
2019-05-16T06:10:12.656Z,100956.70
2019-05-16T06:12:44.300Z,100958.52
2019-05-16T06:15:17.273Z,100955.59
2019-05-16T06:17:50.856Z,100953.88
2019-05-16T06:20:21.942Z,100951.25
2019-05-16T06:22:53.371Z,100954.46
2019-05-16T06:25:24.812Z,100951.63
2019-05-16T06:27:56.428Z,100951.53
2019-05-16T06:30:30.328Z,100943.16
2019-05-16T06:33:00.975Z,100946.39
2019-05-16T06:35:32.511Z,100945.91
2019-05-16T06:38:04.289Z,100950.20
2019-05-16T06:40:36.168Z,100950.58
2019-05-16T06:43:07.509Z,100945.80
2019-05-16T06:45:40.248Z,100948.50
2019-05-16T06:48:11.015Z,100944.05
2019-05-16T06:50:42.687Z,100946.71
2019-05-16T06:53:14.614Z,100946.88
2019-05-16T06:55:46.052Z,100952.53
2019-05-16T06:58:17.460Z,100949.94
2019-05-16T07:00:52.361Z,100954.38
2019-05-16T07:03:22.587Z,100959.84
2019-05-16T07:05:53.921Z,100950.05
2019-05-16T07:08:25.350Z,100956.36
2019-05-16T07:10:56.808Z,100959.02
2019-05-16T07:13:30.367Z,100953.22
2019-05-16T07:16:01.450Z,100962.23
2019-05-16T07:18:32.996Z,100958.60
2019-05-16T07:21:04.498Z,100963.02
2019-05-16T07:23:35.850Z,100972.89
2019-05-16T07:26:09.698Z,100964.17
2019-05-16T07:28:40.756Z,100968.73
2019-05-16T07:31:18.308Z,100965.18
2019-05-16T07:33:45.387Z,100973.00
2019-05-16T07:36:16.816Z,100961.96
2019-05-16T07:38:50.539Z,100956.66
2019-05-16T07:41:21.565Z,100956.17
2019-05-16T07:43:53.210Z,100957.18
2019-05-16T07:46:24.633Z,100949.33
2019-05-16T07:48:56.034Z,100943.64
2019-05-16T07:51:27.500Z,100937.08
2019-05-16T07:54:00.803Z,100950.27
2019-05-16T07:56:32.211Z,100946.61
2019-05-16T07:59:03.618Z,100942.83
2019-05-16T08:01:35.563Z,100946.17
2019-05-16T08:04:07.239Z,100953.23
2019-05-16T08:06:40.783Z,100941.81
2019-05-16T08:09:12.362Z,100942.82
2019-05-16T08:11:44.427Z,100937.46
2019-05-16T08:14:15.741Z,100941.46
2019-05-16T08:16:49.995Z,100942.28
2019-05-16T08:19:24.527Z,100935.39
2019-05-16T08:21:53.392Z,100934.86
2019-05-16T08:24:24.805Z,100938.47
2019-05-16T08:26:56.195Z,100938.61
2019-05-16T08:29:27.528Z,100933.70
2019-05-16T08:32:01.838Z,100934.19
2019-05-16T08:34:32.194Z,100929.50
2019-05-16T08:37:03.935Z,100928.69
2019-05-16T08:39:35.354Z,100924.53
2019-05-16T08:42:08.480Z,100925.25
2019-05-16T08:44:41.828Z,100913.49
2019-05-16T08:47:13.917Z,100925.66
2019-05-16T08:49:45.505Z,100915.37
2019-05-16T08:52:17.024Z,100917.15
2019-05-16T08:54:51.041Z,100921.81
2019-05-16T08:57:27.730Z,100906.16
2019-05-16T08:59:55.338Z,100911.30
2019-05-16T09:05:04.991Z,100902.54
2019-05-16T09:07:34.709Z,100904.86
2019-05-16T09:10:40.734Z,100899.77
2019-05-16T09:12:40.579Z,100887.91
2019-05-16T09:15:12.549Z,100898.50
2019-05-16T09:17:47.237Z,100898.63
2019-05-16T09:18:30.896Z,100902.08
2019-05-16T09:20:19.235Z,100899.70
2019-05-16T09:22:50.774Z,100897.74
2019-05-16T09:25:22.560Z,100890.67
2019-05-16T09:27:56.889Z,100893.59
2019-05-16T09:30:28.288Z,100895.12
2019-05-16T09:33:00.133Z,100885.15
2019-05-16T09:35:31.731Z,100893.14
2019-05-16T09:38:03.106Z,100891.50
2019-05-16T09:40:34.669Z,100896.45
2019-05-16T09:43:07.599Z,100884.37
2019-05-16T09:45:39.262Z,100888.07
2019-05-16T09:48:10.767Z,100879.00
2019-05-16T09:50:42.582Z,100885.95
2019-05-16T09:53:17.148Z,100880.60
2019-05-16T09:55:49.462Z,100880.70
2019-05-16T09:58:21.320Z,100875.62
2019-05-16T10:00:53.284Z,100884.33
2019-05-16T10:03:27.095Z,100873.41
2019-05-16T10:05:58.159Z,100866.05
2019-05-16T10:08:29.780Z,100871.70
2019-05-16T10:11:01.641Z,100866.49
2019-05-16T10:13:33.020Z,100856.11
2019-05-16T10:16:07.077Z,100865.20
2019-05-16T10:18:37.901Z,100857.95
2019-05-16T10:21:09.421Z,100854.34
2019-05-16T10:23:41.009Z,100854.89
2019-05-16T10:26:12.505Z,100866.03
2019-05-16T10:28:46.387Z,100865.06
2019-05-16T10:31:17.970Z,100855.45
2019-05-16T10:33:51.150Z,100850.59
2019-05-16T10:36:22.697Z,100858.70
2019-05-16T10:38:54.195Z,100856.11
2019-05-16T10:41:25.658Z,100848.91
2019-05-16T10:43:57.076Z,100856.19
2019-05-16T10:46:28.532Z,100858.97
2019-05-16T10:48:59.922Z,100845.17
2019-05-16T10:51:31.403Z,100852.55
2019-05-16T10:54:13.033Z,100844.31
2019-05-16T10:56:40.118Z,100840.31
2019-05-16T10:59:46.865Z,100845.61
2019-05-16T11:01:42.939Z,100839.09
2019-05-16T11:04:26.270Z,100845.58
2019-05-16T11:06:57.245Z,100843.73
2019-05-16T11:09:28.857Z,100844.45
2019-05-16T11:12:00.516Z,100834.88
2019-05-16T11:14:32.472Z,100829.63
2019-05-16T11:17:04.125Z,100834.44
2019-05-16T11:19:37.427Z,100822.48
2019-05-16T11:22:09.382Z,100829.77
2019-05-16T11:24:41.172Z,100828.96
2019-05-16T11:27:12.906Z,100828.86
2019-05-16T11:29:47.148Z,100826.83
2019-05-16T11:32:18.366Z,100824.05
2019-05-16T11:34:50.011Z,100818.83
2019-05-16T11:37:22.086Z,100822.63
2019-05-16T11:39:53.835Z,100815.44
2019-05-16T11:42:27.992Z,100816.31
2019-05-16T11:44:59.417Z,100813.11
2019-05-16T11:47:31.153Z,100808.44
2019-05-16T11:50:02.810Z,100814.09
2019-05-16T11:52:34.982Z,100806.37
2019-05-16T11:55:08.193Z,100800.63
2019-05-16T11:57:40.029Z,100808.78
2019-05-16T12:00:13.725Z,100798.80
2019-05-16T12:02:47.876Z,100797.83
2019-05-16T12:05:18.685Z,100793.89
2019-05-16T12:07:50.044Z,100791.58
2019-05-16T12:10:26.929Z,100792.97
2019-05-16T12:12:58.352Z,100783.47
2019-05-16T12:15:32.462Z,100780.41
2019-05-16T12:18:05.874Z,100776.33
2019-05-16T12:20:41.413Z,100768.89
2019-05-16T12:23:13.166Z,100766.86
2019-05-16T12:25:44.714Z,100766.80
2019-05-16T12:28:17.006Z,100774.70
2019-05-16T12:30:48.743Z,100766.22
2019-05-16T12:33:27.501Z,100766.37
2019-05-16T12:35:58.310Z,100771.59
2019-05-16T12:38:29.952Z,100763.23
2019-05-16T12:41:02.319Z,100764.36
2019-05-16T12:43:46.078Z,100765.45
2019-05-16T12:46:09.945Z,100759.08
2019-05-16T12:48:42.552Z,100755.98
2019-05-16T12:51:14.370Z,100755.95
2019-05-16T12:53:49.465Z,100746.93
2019-05-16T12:56:27.229Z,100746.41
2019-05-16T12:58:58.348Z,100746.83
2019-05-16T13:01:34.018Z,100745.31
2019-05-16T13:04:12.403Z,100733.27
2019-05-16T13:06:41.927Z,100738.34
2019-05-16T13:09:13.265Z,100731.48
2019-05-16T13:11:47.211Z,100724.73
2019-05-16T13:14:18.158Z,100732.03
2019-05-16T13:16:50.288Z,100729.21
2019-05-16T13:19:21.730Z,100731.52
2019-05-16T13:21:58.207Z,100725.08
2019-05-16T13:24:29.853Z,100717.91
2019-05-16T13:27:01.822Z,100720.92
2019-05-16T13:29:33.515Z,100716.06
2019-05-16T13:32:07.730Z,100708.88
2019-05-16T13:34:39.337Z,100714.53
2019-05-16T13:37:10.687Z,100715.23
2019-05-16T13:39:42.447Z,100695.67
2019-05-16T13:42:16.479Z,100703.24
2019-05-16T13:44:47.395Z,100708.42
2019-05-16T13:47:19.045Z,100708.42
2019-05-16T13:49:50.711Z,100707.47
2019-05-16T13:52:22.813Z,100695.73
2019-05-16T13:54:56.387Z,100691.58
2019-05-16T13:57:29.042Z,100705.08
2019-05-16T14:00:00.911Z,100704.38
2019-05-16T14:02:32.976Z,100694.77
2019-05-16T14:05:07.525Z,100694.15
2019-05-16T14:07:39.250Z,100692.87
2019-05-16T14:10:11.318Z,100693.20
2019-05-16T14:12:42.668Z,100693.11
2019-05-16T14:15:17.881Z,100686.72
2019-05-16T14:17:49.968Z,100690.56
2019-05-16T14:20:22.135Z,100695.58
2019-05-16T14:22:53.787Z,100685.12
2019-05-16T14:25:25.339Z,100697.03
2019-05-16T14:27:57.223Z,100708.48
2019-05-16T14:30:29.074Z,100698.08
2019-05-16T14:33:02.632Z,100691.69
2019-05-16T14:35:37.670Z,100686.62
2019-05-16T14:38:09.162Z,100690.98
2019-05-16T14:40:40.903Z,100685.30
2019-05-16T14:43:12.352Z,100694.80
2019-05-16T14:45:43.823Z,100692.03
2019-05-16T14:48:18.199Z,100692.95
2019-05-16T14:50:49.158Z,100692.67
2019-05-16T14:53:21.125Z,100699.95
2019-05-16T14:55:52.573Z,100699.00
2019-05-16T14:58:24.235Z,100692.20
2019-05-16T15:00:57.497Z,100696.06
2019-05-16T15:03:29.477Z,100689.43
2019-05-16T15:06:01.452Z,100686.75
2019-05-16T15:08:32.829Z,100683.91
2019-05-16T15:11:04.350Z,100690.61
2019-05-16T15:13:35.957Z,100683.71
2019-05-16T15:16:07.827Z,100682.21
2019-05-16T15:18:39.327Z,100689.81
2019-05-16T15:21:10.734Z,100695.02
2019-05-16T15:23:42.157Z,100693.80
2019-05-16T15:26:13.601Z,100697.69
2019-05-16T15:28:50.741Z,100691.17
2019-05-16T15:31:18.399Z,100691.97
2019-05-16T15:33:50.184Z,100695.95
2019-05-16T15:36:21.923Z,100689.06
2019-05-16T15:38:53.683Z,100700.97
2019-05-16T15:41:27.261Z,100698.24
2019-05-16T15:43:59.653Z,100701.85
2019-05-16T15:46:31.709Z,100698.42
2019-05-16T15:49:03.324Z,100697.86
2019-05-16T15:51:36.923Z,100697.44
2019-05-16T15:54:08.915Z,100701.59
2019-05-16T15:56:43.757Z,100702.90
2019-05-16T15:59:17.969Z,100697.03
2019-05-16T16:01:49.136Z,100697.77
2019-05-16T16:04:21.179Z,100687.34
2019-05-16T16:06:52.740Z,100695.77
2019-05-16T16:09:26.847Z,100695.66
2019-05-16T16:11:57.682Z,100697.66
2019-05-16T16:14:29.437Z,100698.37
2019-05-16T16:17:01.095Z,100697.26
2019-05-16T16:19:32.850Z,100703.34
2019-05-16T16:22:07.288Z,100699.84
2019-05-16T16:24:38.418Z,100703.05
2019-05-16T16:27:10.172Z,100701.32
2019-05-16T16:29:41.828Z,100702.17
2019-05-16T16:32:13.801Z,100703.89
2019-05-16T16:34:45.453Z,100708.68
2019-05-16T16:37:17.004Z,100704.19
2019-05-16T16:39:48.768Z,100707.75
2019-05-16T16:42:20.518Z,100708.66
2019-05-16T16:44:52.472Z,100713.67
2019-05-16T16:47:23.807Z,100713.45
2019-05-16T16:49:59.378Z,100714.80
2019-05-16T16:52:30.558Z,100712.34
2019-05-16T16:55:02.074Z,100712.07
2019-05-16T16:57:33.921Z,100718.06
2019-05-16T17:00:07.933Z,100719.33
2019-05-16T17:02:39.896Z,100717.30
2019-05-16T17:05:13.192Z,100714.63
2019-05-16T17:07:45.041Z,100708.91
2019-05-16T17:10:18.093Z,100712.64
2019-05-16T17:12:49.596Z,100715.81
2019-05-16T17:15:21.393Z,100710.39
2019-05-16T17:17:52.895Z,100711.22
2019-05-16T17:20:24.946Z,100719.05
2019-05-16T17:22:57.215Z,100725.61
2019-05-16T17:25:28.998Z,100723.05
2019-05-16T17:28:00.756Z,100722.70
2019-05-16T17:30:32.602Z,100723.23
2019-05-16T17:33:04.019Z,100720.81
2019-05-16T17:35:38.627Z,100729.47
2019-05-16T17:38:08.667Z,100724.32
2019-05-16T17:40:40.197Z,100733.20
2019-05-16T17:43:12.016Z,100730.56
2019-05-16T17:45:43.701Z,100726.02
2019-05-16T17:48:17.510Z,100722.23
2019-05-16T17:50:50.349Z,100719.63
2019-05-16T17:53:22.320Z,100726.52
2019-05-16T17:55:53.764Z,100736.62
2019-05-16T17:58:27.044Z,100733.20
2019-05-16T18:01:00.494Z,100737.41
2019-05-16T18:03:32.613Z,100738.78
2019-05-16T18:06:06.225Z,100737.83
2019-05-16T18:08:37.807Z,100739.42
2019-05-16T18:11:09.537Z,100742.02
2019-05-16T18:13:41.284Z,100747.83
2019-05-16T18:16:13.243Z,100749.91
2019-05-16T18:18:46.888Z,100746.47
2019-05-16T18:21:18.637Z,100745.51
2019-05-16T18:23:50.259Z,100749.45
2019-05-16T18:26:21.832Z,100746.70
2019-05-16T18:28:53.486Z,100748.56
2019-05-16T18:31:26.624Z,100745.96
2019-05-16T18:33:58.322Z,100745.87
2019-05-16T18:36:30.288Z,100746.61
2019-05-16T18:39:02.241Z,100752.12
2019-05-16T18:41:36.611Z,100753.96
2019-05-16T18:44:08.208Z,100756.43
2019-05-16T18:46:38.974Z,100754.34
2019-05-16T18:49:10.093Z,100752.48
2019-05-16T18:51:42.151Z,100743.75
2019-05-16T18:54:17.262Z,100753.70
2019-05-16T18:56:48.636Z,100750.73
2019-05-16T18:59:20.493Z,100754.03
2019-05-16T19:01:52.409Z,100757.11
2019-05-16T19:04:27.047Z,100761.25
2019-05-16T19:06:59.577Z,100757.89
2019-05-16T19:09:31.423Z,100763.88
2019-05-16T19:12:03.072Z,100761.16
2019-05-16T19:14:36.723Z,100769.12
2019-05-16T19:17:21.055Z,100766.53
2019-05-16T19:19:40.901Z,100764.19
2019-05-16T19:22:12.664Z,100761.12
2019-05-16T19:24:46.456Z,100758.18
2019-05-16T19:27:17.927Z,100757.79
2019-05-16T19:29:49.772Z,100761.09
2019-05-16T19:32:21.741Z,100757.77
2019-05-16T19:34:53.389Z,100761.06
2019-05-16T19:37:24.945Z,100768.89
2019-05-16T19:39:57.054Z,100765.41
2019-05-16T19:42:29.953Z,100762.25
2019-05-16T19:45:01.562Z,100767.47
2019-05-16T19:47:37.619Z,100764.73
2019-05-16T19:50:07.798Z,100771.97
2019-05-16T19:52:40.347Z,100765.89
2019-05-16T19:55:12.458Z,100765.36
2019-05-16T19:57:46.524Z,100758.92
2019-05-16T20:00:18.441Z,100761.59
2019-05-16T20:02:50.205Z,100759.58
2019-05-16T20:05:21.854Z,100760.17
2019-05-16T20:07:53.608Z,100752.79
2019-05-16T20:10:27.093Z,100743.09
2019-05-16T20:12:58.770Z,100751.39
2019-05-16T20:15:30.214Z,100753.23
2019-05-16T20:18:01.775Z,100759.17
2019-05-16T20:20:33.627Z,100756.69
2019-05-16T20:23:05.693Z,100757.19
2019-05-16T20:25:37.142Z,100763.27
2019-05-16T20:28:09.183Z,100765.81
2019-05-16T20:37:53.586Z,100774.45
2019-05-16T20:40:26.574Z,100769.39
2019-05-16T20:42:59.670Z,100771.73
2019-05-16T20:45:32.659Z,100775.06
2019-05-16T20:48:12.117Z,100779.70
2019-05-16T20:50:38.224Z,100779.53
2019-05-16T20:53:09.877Z,100776.64
2019-05-16T20:55:41.746Z,100786.67
2019-05-16T20:58:13.494Z,100785.06
2019-05-16T21:00:46.937Z,100789.56
2019-05-16T21:03:18.841Z,100788.45
2019-05-16T21:05:52.077Z,100787.98
2019-05-16T21:08:26.440Z,100788.88
2019-05-16T21:10:57.400Z,100790.64
2019-05-16T21:13:29.567Z,100795.87
2019-05-16T21:16:01.634Z,100801.45
2019-05-16T21:18:33.593Z,100798.09
2019-05-16T21:21:07.589Z,100803.98
2019-05-16T21:23:39.055Z,100800.36
2019-05-16T21:26:10.706Z,100801.21
2019-05-16T21:28:42.565Z,100804.58
2019-05-16T21:31:16.478Z,100807.86
2019-05-16T21:33:47.621Z,100803.88
2019-05-16T21:36:19.478Z,100808.43
2019-05-16T21:38:52.153Z,100803.14
2019-05-16T21:41:23.911Z,100802.19
2019-05-16T21:43:56.218Z,100798.92
2019-05-16T21:46:27.844Z,100794.89
2019-05-16T21:48:59.599Z,100788.67
2019-05-16T21:51:32.271Z,100788.12
2019-05-16T21:54:07.016Z,100793.78
2019-05-16T21:56:37.946Z,100796.66
2019-05-16T21:59:09.592Z,100799.58
2019-05-16T22:01:42.852Z,100791.10
2019-05-16T22:04:14.648Z,100785.72
2019-05-16T22:06:47.476Z,100782.81
2019-05-16T22:09:19.488Z,100787.44
2019-05-16T22:11:51.657Z,100788.02
2019-05-16T22:14:28.124Z,100784.22
2019-05-16T22:16:59.982Z,100778.65
2019-05-16T22:19:33.073Z,100773.77
2019-05-16T22:22:07.296Z,100773.46
2019-05-16T22:24:38.328Z,100770.59
2019-05-16T22:27:10.254Z,100772.73
2019-05-16T22:29:42.152Z,100764.05
2019-05-16T22:32:15.949Z,100763.05
2019-05-16T22:34:47.650Z,100761.61
2019-05-16T22:37:19.263Z,100764.48
2019-05-16T22:39:50.716Z,100765.65
2019-05-16T22:42:22.477Z,100762.56
2019-05-16T22:44:54.231Z,100764.21
2019-05-16T22:47:26.631Z,100764.48
2019-05-16T22:49:59.235Z,100769.50
2019-05-16T22:52:31.427Z,100773.14
2019-05-16T22:55:03.102Z,100769.10
2019-05-16T22:57:35.063Z,100774.11
2019-05-16T23:00:10.510Z,100764.30
2019-05-16T23:02:43.907Z,100764.89
2019-05-16T23:05:16.831Z,100763.36
2019-05-16T23:08:02.027Z,100762.41
2019-05-16T23:10:25.001Z,100759.23
2019-05-16T23:12:57.252Z,100767.03
2019-05-16T23:15:28.833Z,100759.91
2019-05-16T23:18:00.560Z,100751.66
2019-05-16T23:20:32.350Z,100760.21
2019-05-16T23:23:04.211Z,100751.47
2019-05-16T23:25:37.071Z,100749.55
2019-05-16T23:28:08.848Z,100754.16
2019-05-16T23:30:40.424Z,100745.81
2019-05-16T23:33:12.162Z,100745.14
2019-05-16T23:35:46.717Z,100749.56
2019-05-16T23:38:19.908Z,100745.23
2019-05-16T23:40:51.016Z,100743.81
2019-05-16T23:43:22.878Z,100749.28
2019-05-16T23:45:56.405Z,100752.55
2019-05-16T23:48:28.026Z,100747.22
2019-05-16T23:50:59.584Z,100751.38
2019-05-16T23:53:30.531Z,100761.23
2019-05-16T23:56:01.777Z,100757.11
2019-05-16T23:58:33.220Z,100759.70
